sensor_id;sensor_type;location;lat;lon;timestamp;pressure;altitude;pressure_sealevel;temperature;humidity
10720;BME280;5411;58.386;15.560;2024-02-15T00:15:37;78445.69;;;-144.36;100.00
10720;BME280;5411;58.386;15.560;2024-02-15T00:18:07;78445.69;;;-144.36;100.00
10720;BME280;5411;58.386;15.560;2024-02-15T00:20:36;78449.78;;;-144.36;100.00
10720;BME280;5411;58.386;15.560;2024-02-15T00:23:05;78457.94;;;-144.36;100.00
10720;BME280;5411;58.386;15.560;2024-02-15T00:25:34;78459.97;;;-144.36;100.00
10720;BME280;5411;58.386;15.560;2024-02-15T00:28:03;78462.00;;;-144.36;100.00
10720;BME280;5411;58.386;15.560;2024-02-15T00:30:34;78457.94;;;-144.36;100.00
10720;BME280;5411;58.386;15.560;2024-02-15T00:33:04;78464.06;;;-144.36;100.00
10720;BME280;5411;58.386;15.560;2024-02-15T00:35:36;78466.09;;;-144.36;100.00
10720;BME280;5411;58.386;15.560;2024-02-15T00:38:05;78472.22;;;-144.36;100.00
10720;BME280;5411;58.386;15.560;2024-02-15T00:40:36;78470.19;;;-144.36;100.00
10720;BME280;5411;58.386;15.560;2024-02-15T00:43:11;78476.31;;;-144.36;100.00
10720;BME280;5411;58.386;15.560;2024-02-15T00:45:42;78474.25;;;-144.36;100.00
10720;BME280;5411;58.386;15.560;2024-02-15T00:48:13;78486.50;;;-144.36;100.00
10720;BME280;5411;58.386;15.560;2024-02-15T00:50:47;78482.44;;;-144.36;100.00
10720;BME280;5411;58.386;15.560;2024-02-15T00:53:17;78484.47;;;-144.36;100.00
10720;BME280;5411;58.386;15.560;2024-02-15T00:55:47;78484.47;;;-144.36;100.00
10720;BME280;5411;58.386;15.560;2024-02-15T00:58:19;78486.50;;;-144.36;100.00
10720;BME280;5411;58.386;15.560;2024-02-15T01:00:48;78484.47;;;-144.36;100.00
10720;BME280;5411;58.386;15.560;2024-02-15T01:03:18;78484.47;;;-144.36;100.00
10720;BME280;5411;58.386;15.560;2024-02-15T01:05:46;78488.56;;;-144.36;100.00
10720;BME280;5411;58.386;15.560;2024-02-15T01:08:15;78482.44;;;-144.36;100.00
10720;BME280;5411;58.386;15.560;2024-02-15T01:10:46;78482.44;;;-144.36;100.00
10720;BME280;5411;58.386;15.560;2024-02-15T01:13:17;78482.44;;;-144.36;100.00
10720;BME280;5411;58.386;15.560;2024-02-15T01:15:48;78480.38;;;-144.36;100.00
10720;BME280;5411;58.386;15.560;2024-02-15T01:18:20;78488.56;;;-144.36;100.00
10720;BME280;5411;58.386;15.560;2024-02-15T01:20:48;78490.59;;;-144.36;100.00
10720;BME280;5411;58.386;15.560;2024-02-15T01:23:17;78488.56;;;-144.36;100.00
10720;BME280;5411;58.386;15.560;2024-02-15T01:25:46;78490.59;;;-144.36;100.00
10720;BME280;5411;58.386;15.560;2024-02-15T01:28:16;78492.63;;;-144.36;100.00
10720;BME280;5411;58.386;15.560;2024-02-15T01:30:47;78490.59;;;-144.36;100.00
10720;BME280;5411;58.386;15.560;2024-02-15T01:33:19;78482.44;;;-144.36;100.00
10720;BME280;5411;58.386;15.560;2024-02-15T01:35:50;78484.47;;;-144.36;100.00
10720;BME280;5411;58.386;15.560;2024-02-15T01:38:20;78486.50;;;-144.36;100.00
10720;BME280;5411;58.386;15.560;2024-02-15T01:40:51;78486.50;;;-144.36;100.00
10720;BME280;5411;58.386;15.560;2024-02-15T01:43:19;78486.50;;;-144.36;100.00
10720;BME280;5411;58.386;15.560;2024-02-15T01:45:48;78486.50;;;-144.36;100.00
10720;BME280;5411;58.386;15.560;2024-02-15T01:48:16;78486.50;;;-144.36;100.00
10720;BME280;5411;58.386;15.560;2024-02-15T01:50:46;78480.38;;;-144.36;100.00
10720;BME280;5411;58.386;15.560;2024-02-15T01:53:15;78486.50;;;-144.36;100.00
10720;BME280;5411;58.386;15.560;2024-02-15T01:55:50;78488.56;;;-144.36;100.00
10720;BME280;5411;58.386;15.560;2024-02-15T01:58:19;78492.63;;;-144.36;100.00
10720;BME280;5411;58.386;15.560;2024-02-15T02:00:48;78488.56;;;-144.36;100.00
10720;BME280;5411;58.386;15.560;2024-02-15T02:03:16;78488.56;;;-144.36;100.00
10720;BME280;5411;58.386;15.560;2024-02-15T02:05:49;78484.47;;;-144.36;100.00
10720;BME280;5411;58.386;15.560;2024-02-15T02:08:18;78488.56;;;-144.36;100.00
10720;BME280;5411;58.386;15.560;2024-02-15T02:10:46;78488.56;;;-144.36;100.00
10720;BME280;5411;58.386;15.560;2024-02-15T02:13:14;78482.44;;;-144.36;100.00
10720;BME280;5411;58.386;15.560;2024-02-15T02:15:45;78484.47;;;-144.36;100.00
10720;BME280;5411;58.386;15.560;2024-02-15T02:18:14;78486.50;;;-144.36;100.00
10720;BME280;5411;58.386;15.560;2024-02-15T02:20:42;78486.50;;;-144.36;100.00
10720;BME280;5411;58.386;15.560;2024-02-15T02:23:16;78482.44;;;-144.36;100.00
10720;BME280;5411;58.386;15.560;2024-02-15T02:25:47;78486.50;;;-144.36;100.00
10720;BME280;5411;58.386;15.560;2024-02-15T02:28:16;78490.59;;;-144.36;100.00
10720;BME280;5411;58.386;15.560;2024-02-15T02:30:45;78492.63;;;-144.36;100.00
10720;BME280;5411;58.386;15.560;2024-02-15T02:33:23;78488.56;;;-144.36;100.00
10720;BME280;5411;58.386;15.560;2024-02-15T02:35:56;78490.59;;;-144.36;100.00
10720;BME280;5411;58.386;15.560;2024-02-15T02:38:25;78490.59;;;-144.36;100.00
10720;BME280;5411;58.386;15.560;2024-02-15T02:40:57;78482.44;;;-144.36;100.00
10720;BME280;5411;58.386;15.560;2024-02-15T02:43:25;78482.44;;;-144.36;100.00
10720;BME280;5411;58.386;15.560;2024-02-15T02:45:53;78476.31;;;-144.36;100.00
10720;BME280;5411;58.386;15.560;2024-02-15T02:48:24;78476.31;;;-144.36;100.00
10720;BME280;5411;58.386;15.560;2024-02-15T02:50:54;78466.09;;;-144.36;100.00
10720;BME280;5411;58.386;15.560;2024-02-15T02:53:23;78468.13;;;-144.36;100.00
10720;BME280;5411;58.386;15.560;2024-02-15T02:55:51;78466.09;;;-144.36;100.00
10720;BME280;5411;58.386;15.560;2024-02-15T02:58:21;78470.19;;;-144.36;100.00
10720;BME280;5411;58.386;15.560;2024-02-15T03:00:55;78474.25;;;-144.36;100.00
10720;BME280;5411;58.386;15.560;2024-02-15T03:03:24;78474.25;;;-144.36;100.00
10720;BME280;5411;58.386;15.560;2024-02-15T03:05:53;78476.31;;;-144.36;100.00
10720;BME280;5411;58.386;15.560;2024-02-15T03:08:22;78476.31;;;-144.36;100.00
10720;BME280;5411;58.386;15.560;2024-02-15T03:10:57;78490.59;;;-144.36;100.00
10720;BME280;5411;58.386;15.560;2024-02-15T03:13:26;78490.59;;;-144.36;100.00
10720;BME280;5411;58.386;15.560;2024-02-15T03:15:58;78492.63;;;-144.36;100.00
10720;BME280;5411;58.386;15.560;2024-02-15T03:18:27;78494.69;;;-144.36;100.00
10720;BME280;5411;58.386;15.560;2024-02-15T03:20:55;78496.72;;;-144.36;100.00
10720;BME280;5411;58.386;15.560;2024-02-15T03:23:24;78486.50;;;-144.36;100.00
10720;BME280;5411;58.386;15.560;2024-02-15T03:25:52;78488.56;;;-144.36;100.00
10720;BME280;5411;58.386;15.560;2024-02-15T03:28:25;78490.59;;;-144.36;100.00
10720;BME280;5411;58.386;15.560;2024-02-15T03:30:53;78492.63;;;-144.36;100.00
10720;BME280;5411;58.386;15.560;2024-02-15T03:33:22;78498.75;;;-144.36;100.00
10720;BME280;5411;58.386;15.560;2024-02-15T03:35:53;78502.84;;;-144.36;100.00
10720;BME280;5411;58.386;15.560;2024-02-15T03:38:28;78502.84;;;-144.36;100.00
10720;BME280;5411;58.386;15.560;2024-02-15T03:41:04;78508.97;;;-144.36;100.00
10720;BME280;5411;58.386;15.560;2024-02-15T03:43:37;78511.00;;;-144.36;100.00
10720;BME280;5411;58.386;15.560;2024-02-15T03:46:05;78511.00;;;-144.36;100.00
10720;BME280;5411;58.386;15.560;2024-02-15T03:48:42;78513.06;;;-144.36;100.00
10720;BME280;5411;58.386;15.560;2024-02-15T03:51:11;78511.00;;;-144.36;100.00
10720;BME280;5411;58.386;15.560;2024-02-15T03:53:44;78511.00;;;-144.36;100.00
10720;BME280;5411;58.386;15.560;2024-02-15T03:56:12;78515.09;;;-144.36;100.00
10720;BME280;5411;58.386;15.560;2024-02-15T03:58:42;78511.00;;;-144.36;100.00
10720;BME280;5411;58.386;15.560;2024-02-15T04:01:11;78508.97;;;-144.36;100.00
10720;BME280;5411;58.386;15.560;2024-02-15T04:03:42;78513.06;;;-144.36;100.00
10720;BME280;5411;58.386;15.560;2024-02-15T04:06:11;78508.97;;;-144.36;100.00
10720;BME280;5411;58.386;15.560;2024-02-15T04:08:43;78506.94;;;-144.36;100.00
10720;BME280;5411;58.386;15.560;2024-02-15T04:11:11;78502.84;;;-144.36;100.00
10720;BME280;5411;58.386;15.560;2024-02-15T04:13:45;78502.84;;;-144.36;100.00
10720;BME280;5411;58.386;15.560;2024-02-15T04:16:15;78508.97;;;-144.36;100.00
10720;BME280;5411;58.386;15.560;2024-02-15T04:18:48;78515.09;;;-144.36;100.00
10720;BME280;5411;58.386;15.560;2024-02-15T04:21:17;78521.22;;;-144.36;100.00
10720;BME280;5411;58.386;15.560;2024-02-15T04:23:46;78523.25;;;-144.36;100.00
10720;BME280;5411;58.386;15.560;2024-02-15T04:26:15;78527.34;;;-144.36;100.00
10720;BME280;5411;58.386;15.560;2024-02-15T04:28:48;78521.22;;;-144.36;100.00
10720;BME280;5411;58.386;15.560;2024-02-15T04:31:19;78521.22;;;-144.36;100.00
10720;BME280;5411;58.386;15.560;2024-02-15T04:33:53;78525.31;;;-144.36;100.00
10720;BME280;5411;58.386;15.560;2024-02-15T04:36:23;78529.38;;;-144.36;100.00
10720;BME280;5411;58.386;15.560;2024-02-15T04:38:54;78533.47;;;-144.36;100.00
10720;BME280;5411;58.386;15.560;2024-02-15T04:41:28;78537.53;;;-144.36;100.00
10720;BME280;5411;58.386;15.560;2024-02-15T04:44:00;78557.97;;;-144.36;100.00
10720;BME280;5411;58.386;15.560;2024-02-15T04:46:30;78566.13;;;-144.36;100.00
10720;BME280;5411;58.386;15.560;2024-02-15T04:48:59;78562.03;;;-144.36;100.00
10720;BME280;5411;58.386;15.560;2024-02-15T04:51:29;78566.13;;;-144.36;100.00
10720;BME280;5411;58.386;15.560;2024-02-15T04:53:57;78576.34;;;-144.36;100.00
10720;BME280;5411;58.386;15.560;2024-02-15T04:56:28;78572.25;;;-144.36;100.00
10720;BME280;5411;58.386;15.560;2024-02-15T04:59:07;78572.25;;;-144.36;100.00
10720;BME280;5411;58.386;15.560;2024-02-15T05:01:38;78582.47;;;-144.36;100.00
10720;BME280;5411;58.386;15.560;2024-02-15T05:04:14;78576.34;;;-144.36;100.00
10720;BME280;5411;58.386;15.560;2024-02-15T05:06:47;78582.47;;;-144.36;100.00
10720;BME280;5411;58.386;15.560;2024-02-15T05:09:21;78584.50;;;-144.36;100.00
10720;BME280;5411;58.386;15.560;2024-02-15T05:11:50;78582.47;;;-144.36;100.00
10720;BME280;5411;58.386;15.560;2024-02-15T05:14:22;78576.34;;;-144.36;100.00
10720;BME280;5411;58.386;15.560;2024-02-15T05:16:52;78574.28;;;-144.36;100.00
10720;BME280;5411;58.386;15.560;2024-02-15T05:19:20;78566.13;;;-144.36;100.00
10720;BME280;5411;58.386;15.560;2024-02-15T05:21:49;78568.16;;;-144.36;100.00
10720;BME280;5411;58.386;15.560;2024-02-15T05:24:22;78564.09;;;-144.36;100.00
10720;BME280;5411;58.386;15.560;2024-02-15T05:26:50;78557.97;;;-144.36;100.00
10720;BME280;5411;58.386;15.560;2024-02-15T05:29:19;78560.00;;;-144.36;100.00
10720;BME280;5411;58.386;15.560;2024-02-15T05:31:54;78562.03;;;-144.36;100.00
10720;BME280;5411;58.386;15.560;2024-02-15T05:34:23;78551.84;;;-144.36;100.00
10720;BME280;5411;58.386;15.560;2024-02-15T05:36:54;78555.91;;;-144.36;100.00
10720;BME280;5411;58.386;15.560;2024-02-15T05:39:22;78549.78;;;-144.36;100.00
10720;BME280;5411;58.386;15.560;2024-02-15T05:41:52;78547.75;;;-144.36;100.00
10720;BME280;5411;58.386;15.560;2024-02-15T05:44:20;78539.59;;;-144.36;100.00
10720;BME280;5411;58.386;15.560;2024-02-15T05:46:49;78527.34;;;-144.36;100.00
10720;BME280;5411;58.386;15.560;2024-02-15T05:49:25;78525.31;;;-144.36;100.00
10720;BME280;5411;58.386;15.560;2024-02-15T05:51:57;78531.44;;;-144.36;100.00
10720;BME280;5411;58.386;15.560;2024-02-15T05:54:25;78533.47;;;-144.36;100.00
10720;BME280;5411;58.386;15.560;2024-02-15T05:56:58;78531.44;;;-144.36;100.00
10720;BME280;5411;58.386;15.560;2024-02-15T05:59:31;78529.38;;;-144.36;100.00
10720;BME280;5411;58.386;15.560;2024-02-15T06:02:07;78523.25;;;-144.36;100.00
10720;BME280;5411;58.386;15.560;2024-02-15T06:04:41;78529.38;;;-144.36;100.00
10720;BME280;5411;58.386;15.560;2024-02-15T06:07:09;78531.44;;;-144.36;100.00
10720;BME280;5411;58.386;15.560;2024-02-15T06:09:38;78533.47;;;-144.36;100.00
10720;BME280;5411;58.386;15.560;2024-02-15T06:12:07;78531.44;;;-144.36;100.00
10720;BME280;5411;58.386;15.560;2024-02-15T06:14:38;78539.59;;;-144.36;100.00
10720;BME280;5411;58.386;15.560;2024-02-15T06:17:08;78545.72;;;-144.36;100.00
10720;BME280;5411;58.386;15.560;2024-02-15T06:19:37;78547.75;;;-144.36;100.00
10720;BME280;5411;58.386;15.560;2024-02-15T06:22:12;78547.75;;;-144.36;100.00
10720;BME280;5411;58.386;15.560;2024-02-15T06:24:41;78543.66;;;-144.36;100.00
10720;BME280;5411;58.386;15.560;2024-02-15T06:30:04;78541.63;;;-144.36;100.00
10720;BME280;5411;58.386;15.560;2024-02-15T06:32:50;78531.44;;;-144.36;100.00
10720;BME280;5411;58.386;15.560;2024-02-15T06:35:37;78531.44;;;-144.36;100.00
10720;BME280;5411;58.386;15.560;2024-02-15T06:38:24;78531.44;;;-144.36;100.00
10720;BME280;5411;58.386;15.560;2024-02-15T06:41:10;78539.59;;;-144.36;100.00
10720;BME280;5411;58.386;15.560;2024-02-15T06:43:38;78553.88;;;-144.36;100.00
10720;BME280;5411;58.386;15.560;2024-02-15T06:46:07;78555.91;;;-144.36;100.00
10720;BME280;5411;58.386;15.560;2024-02-15T06:48:37;78564.09;;;-144.36;100.00
10720;BME280;5411;58.386;15.560;2024-02-15T06:51:07;78564.09;;;-144.36;100.00
10720;BME280;5411;58.386;15.560;2024-02-15T06:53:44;78568.16;;;-144.36;100.00
10720;BME280;5411;58.386;15.560;2024-02-15T06:56:13;78572.25;;;-144.36;100.00
10720;BME280;5411;58.386;15.560;2024-02-15T06:58:46;78582.47;;;-144.36;100.00
10720;BME280;5411;58.386;15.560;2024-02-15T07:01:15;78590.63;;;-144.36;100.00
10720;BME280;5411;58.386;15.560;2024-02-15T07:03:44;78588.59;;;-144.36;100.00
10720;BME280;5411;58.386;15.560;2024-02-15T07:06:12;78590.63;;;-144.36;100.00
10720;BME280;5411;58.386;15.560;2024-02-15T07:08:41;78584.50;;;-144.36;100.00
10720;BME280;5411;58.386;15.560;2024-02-15T07:11:11;78582.47;;;-144.36;100.00
10720;BME280;5411;58.386;15.560;2024-02-15T07:13:40;78586.53;;;-144.36;100.00
10720;BME280;5411;58.386;15.560;2024-02-15T07:16:10;78576.34;;;-144.36;100.00
10720;BME280;5411;58.386;15.560;2024-02-15T07:18:42;78580.41;;;-144.36;100.00
10720;BME280;5411;58.386;15.560;2024-02-15T07:21:13;78582.47;;;-144.36;100.00
10720;BME280;5411;58.386;15.560;2024-02-15T07:23:43;78590.63;;;-144.36;100.00
10720;BME280;5411;58.386;15.560;2024-02-15T07:26:14;78588.59;;;-144.36;100.00
10720;BME280;5411;58.386;15.560;2024-02-15T07:28:45;78594.72;;;-144.36;100.00
10720;BME280;5411;58.386;15.560;2024-02-15T07:31:28;78598.78;;;-144.36;100.00
10720;BME280;5411;58.386;15.560;2024-02-15T07:33:57;78592.66;;;-144.36;100.00
10720;BME280;5411;58.386;15.560;2024-02-15T07:36:26;78592.66;;;-144.36;100.00
10720;BME280;5411;58.386;15.560;2024-02-15T07:38:57;78590.63;;;-144.36;100.00
10720;BME280;5411;58.386;15.560;2024-02-15T07:41:30;78584.50;;;-144.36;100.00
10720;BME280;5411;58.386;15.560;2024-02-15T07:44:00;78578.38;;;-144.36;100.00
10720;BME280;5411;58.386;15.560;2024-02-15T07:46:30;78572.25;;;-144.36;100.00
10720;BME280;5411;58.386;15.560;2024-02-15T07:49:01;78566.13;;;-144.36;100.00
10720;BME280;5411;58.386;15.560;2024-02-15T07:51:30;78562.03;;;-144.36;100.00
10720;BME280;5411;58.386;15.560;2024-02-15T07:53:58;78555.91;;;-144.36;100.00
10720;BME280;5411;58.386;15.560;2024-02-15T07:56:30;78555.91;;;-144.36;100.00
10720;BME280;5411;58.386;15.560;2024-02-15T07:58:58;78555.91;;;-144.36;100.00
10720;BME280;5411;58.386;15.560;2024-02-15T08:01:27;78539.59;;;-144.36;100.00
10720;BME280;5411;58.386;15.560;2024-02-15T08:03:59;78529.38;;;-144.36;100.00
10720;BME280;5411;58.386;15.560;2024-02-15T08:06:27;78523.25;;;-144.36;100.00
10720;BME280;5411;58.386;15.560;2024-02-15T08:08:59;78506.94;;;-144.36;100.00
10720;BME280;5411;58.386;15.560;2024-02-15T08:11:33;78490.59;;;-144.36;100.00
10720;BME280;5411;58.386;15.560;2024-02-15T08:14:01;78478.34;;;-144.36;100.00
10720;BME280;5411;58.386;15.560;2024-02-15T08:16:40;78464.06;;;-144.36;100.00
10720;BME280;5411;58.386;15.560;2024-02-15T08:19:09;78457.94;;;-144.36;100.00
10720;BME280;5411;58.386;15.560;2024-02-15T08:21:38;78462.00;;;-144.36;100.00
10720;BME280;5411;58.386;15.560;2024-02-15T08:24:09;78455.91;;;-144.36;100.00
10720;BME280;5411;58.386;15.560;2024-02-15T08:26:39;78457.94;;;-144.36;100.00
10720;BME280;5411;58.386;15.560;2024-02-15T08:29:09;78466.09;;;-144.36;100.00
10720;BME280;5411;58.386;15.560;2024-02-15T08:31:44;78459.97;;;-144.36;100.00
10720;BME280;5411;58.386;15.560;2024-02-15T08:34:15;78455.91;;;-144.36;100.00
10720;BME280;5411;58.386;15.560;2024-02-15T08:36:45;78445.69;;;-144.36;100.00
10720;BME280;5411;58.386;15.560;2024-02-15T08:39:14;78437.53;;;-144.36;100.00
10720;BME280;5411;58.386;15.560;2024-02-15T08:41:45;78435.47;;;-144.36;100.00
10720;BME280;5411;58.386;15.560;2024-02-15T08:44:13;78423.22;;;-144.36;100.00
10720;BME280;5411;58.386;15.560;2024-02-15T08:46:43;78406.91;;;-144.36;100.00
10720;BME280;5411;58.386;15.560;2024-02-15T08:49:15;78394.66;;;-144.36;100.00
10720;BME280;5411;58.386;15.560;2024-02-15T08:51:43;78386.50;;;-144.36;100.00
10720;BME280;5411;58.386;15.560;2024-02-15T08:54:12;78380.38;;;-144.36;100.00
10720;BME280;5411;58.386;15.560;2024-02-15T08:56:40;78368.13;;;-144.36;100.00
10720;BME280;5411;58.386;15.560;2024-02-15T08:59:10;78357.91;;;-144.36;99.52
10720;BME280;5411;58.386;15.560;2024-02-15T09:01:38;78351.78;;;-144.36;98.59
10720;BME280;5411;58.386;15.560;2024-02-15T09:04:17;78333.41;;;-144.36;98.59
10720;BME280;5411;58.386;15.560;2024-02-15T09:06:46;78335.47;;;-144.36;97.98
10720;BME280;5411;58.386;15.560;2024-02-15T09:09:14;78333.41;;;-144.36;98.39
10720;BME280;5411;58.386;15.560;2024-02-15T09:11:45;78329.34;;;-144.36;98.11
10720;BME280;5411;58.386;15.560;2024-02-15T09:14:17;78321.16;;;-144.36;98.75
10720;BME280;5411;58.386;15.560;2024-02-15T09:16:48;78308.94;;;-144.36;98.70
10720;BME280;5411;58.386;15.560;2024-02-15T09:19:17;78306.88;;;-144.36;98.19
10720;BME280;5411;58.386;15.560;2024-02-15T09:21:46;78302.81;;;-144.36;98.04
10720;BME280;5411;58.386;15.560;2024-02-15T09:24:14;78302.81;;;-144.36;98.15
10720;BME280;5411;58.386;15.560;2024-02-15T09:26:43;78300.75;;;-144.36;97.71
10720;BME280;5411;58.386;15.560;2024-02-15T09:29:12;78300.75;;;-144.36;97.78
10720;BME280;5411;58.386;15.560;2024-02-15T09:31:46;78284.44;;;-144.36;98.88
10720;BME280;5411;58.386;15.560;2024-02-15T09:34:14;78286.47;;;-144.36;97.50
10720;BME280;5411;58.386;15.560;2024-02-15T09:36:42;78278.31;;;-144.36;98.16
10720;BME280;5411;58.386;15.560;2024-02-15T09:39:13;78278.31;;;-144.36;98.13
10720;BME280;5411;58.386;15.560;2024-02-15T09:41:42;78266.06;;;-144.36;97.79
10720;BME280;5411;58.386;15.560;2024-02-15T09:44:16;78259.94;;;-144.36;96.61
10720;BME280;5411;58.386;15.560;2024-02-15T09:46:53;78253.81;;;-144.36;97.00
10720;BME280;5411;58.386;15.560;2024-02-15T09:49:27;78257.91;;;-144.36;96.23
10720;BME280;5411;58.386;15.560;2024-02-15T09:51:57;78257.91;;;-144.36;96.15
10720;BME280;5411;58.386;15.560;2024-02-15T09:54:29;78253.81;;;-144.36;96.25
10720;BME280;5411;58.386;15.560;2024-02-15T09:57:01;78247.69;;;-144.36;96.76
10720;BME280;5411;58.386;15.560;2024-02-15T09:59:30;78241.56;;;-144.36;96.10
10720;BME280;5411;58.386;15.560;2024-02-15T10:02:00;78237.47;;;-144.36;96.29
10720;BME280;5411;58.386;15.560;2024-02-15T10:04:29;78231.34;;;-144.36;96.47
10720;BME280;5411;58.386;15.560;2024-02-15T10:07:00;78212.97;;;-144.36;95.79
10720;BME280;5411;58.386;15.560;2024-02-15T10:09:29;78208.91;;;-144.36;95.64
10720;BME280;5411;58.386;15.560;2024-02-15T10:11:59;78200.75;;;-144.36;95.43
10720;BME280;5411;58.386;15.560;2024-02-15T10:14:29;78190.53;;;-144.36;94.13
10720;BME280;5411;58.386;15.560;2024-02-15T10:17:07;78188.50;;;-144.36;94.47
10720;BME280;5411;58.386;15.560;2024-02-15T10:19:38;78188.50;;;-144.36;93.85
10720;BME280;5411;58.386;15.560;2024-02-15T10:22:07;78186.44;;;-144.36;94.20
10720;BME280;5411;58.386;15.560;2024-02-15T10:24:36;78172.16;;;-144.36;93.49
10720;BME280;5411;58.386;15.560;2024-02-15T10:27:06;78164.00;;;-144.36;93.52
10720;BME280;5411;58.386;15.560;2024-02-15T10:29:35;78168.09;;;-144.36;92.30
10720;BME280;5411;58.386;15.560;2024-02-15T10:32:06;78164.00;;;-144.36;93.17
10720;BME280;5411;58.386;15.560;2024-02-15T10:34:44;78161.97;;;-144.36;92.90
10720;BME280;5411;58.386;15.560;2024-02-15T10:37:15;78145.63;;;-144.36;92.68
10720;BME280;5411;58.386;15.560;2024-02-15T10:39:46;78137.47;;;-144.36;92.14
10720;BME280;5411;58.386;15.560;2024-02-15T10:42:20;78125.22;;;-144.36;92.70
10720;BME280;5411;58.386;15.560;2024-02-15T10:44:51;78123.19;;;-144.36;92.75
10720;BME280;5411;58.386;15.560;2024-02-15T10:47:21;78123.19;;;-144.36;91.99
10720;BME280;5411;58.386;15.560;2024-02-15T10:49:51;78110.94;;;-144.36;91.67
10720;BME280;5411;58.386;15.560;2024-02-15T10:52:24;78112.97;;;-144.36;91.49
10720;BME280;5411;58.386;15.560;2024-02-15T10:55:01;78098.69;;;-144.36;90.65
10720;BME280;5411;58.386;15.560;2024-02-15T10:57:32;78090.53;;;-144.36;90.59
10720;BME280;5411;58.386;15.560;2024-02-15T11:00:02;78096.63;;;-144.36;90.54
10720;BME280;5411;58.386;15.560;2024-02-15T11:02:42;78106.84;;;-144.36;89.86
10720;BME280;5411;58.386;15.560;2024-02-15T11:05:17;78119.09;;;-144.36;90.61
10720;BME280;5411;58.386;15.560;2024-02-15T11:07:51;78117.06;;;-144.36;90.31
10720;BME280;5411;58.386;15.560;2024-02-15T11:10:22;78123.19;;;-144.36;90.29
10720;BME280;5411;58.386;15.560;2024-02-15T11:12:54;78147.66;;;-144.36;90.57
10720;BME280;5411;58.386;15.560;2024-02-15T11:15:46;78164.00;;;-144.36;90.75
10720;BME280;5411;58.386;15.560;2024-02-15T11:18:42;78194.63;;;-144.36;91.74
10720;BME280;5411;58.386;15.560;2024-02-15T11:21:15;78206.88;;;-144.36;92.64
10720;BME280;5411;58.386;15.560;2024-02-15T11:23:43;78188.50;;;-144.36;93.14
10720;BME280;5411;58.386;15.560;2024-02-15T11:26:43;78172.16;;;-144.36;93.22
10720;BME280;5411;58.386;15.560;2024-02-15T11:29:50;78166.03;;;-144.36;93.02
10720;BME280;5411;58.386;15.560;2024-02-15T11:32:41;78151.75;;;-144.36;92.15
10720;BME280;5411;58.386;15.560;2024-02-15T11:35:21;78147.66;;;-144.36;92.41
10720;BME280;5411;58.386;15.560;2024-02-15T11:37:59;78133.38;;;-144.36;92.58
10720;BME280;5411;58.386;15.560;2024-02-15T11:41:01;78123.19;;;-144.36;92.71
10720;BME280;5411;58.386;15.560;2024-02-15T11:43:47;78102.75;;;-144.36;91.68
10720;BME280;5411;58.386;15.560;2024-02-15T11:46:24;78094.59;;;-144.36;91.23
10720;BME280;5411;58.386;15.560;2024-02-15T11:48:56;78108.88;;;-144.36;90.86
10720;BME280;5411;58.386;15.560;2024-02-15T11:51:31;78110.94;;;-144.36;91.51
10720;BME280;5411;58.386;15.560;2024-02-15T11:54:06;78127.25;;;-144.36;90.99
10720;BME280;5411;58.386;15.560;2024-02-15T11:56:51;78129.31;;;-144.36;91.29
10720;BME280;5411;58.386;15.560;2024-02-15T11:59:21;78137.47;;;-144.36;91.07
10720;BME280;5411;58.386;15.560;2024-02-15T12:02:12;78147.66;;;-144.36;92.01
10720;BME280;5411;58.386;15.560;2024-02-15T12:04:58;78172.16;;;-144.36;91.79
10720;BME280;5411;58.386;15.560;2024-02-15T12:07:43;78166.03;;;-144.36;92.75
10720;BME280;5411;58.386;15.560;2024-02-15T12:10:30;78149.72;;;-144.36;92.92
10720;BME280;5411;58.386;15.560;2024-02-15T12:13:17;78143.59;;;-144.36;91.95
10720;BME280;5411;58.386;15.560;2024-02-15T12:16:03;78147.66;;;-144.36;91.41
10720;BME280;5411;58.386;15.560;2024-02-15T12:18:50;78141.53;;;-144.36;91.59
10720;BME280;5411;58.386;15.560;2024-02-15T12:21:23;78147.66;;;-144.36;91.28
10720;BME280;5411;58.386;15.560;2024-02-15T12:23:52;78147.66;;;-144.36;90.80
10720;BME280;5411;58.386;15.560;2024-02-15T12:26:23;78176.25;;;-144.36;91.56
10720;BME280;5411;58.386;15.560;2024-02-15T12:28:51;78180.31;;;-144.36;91.47
10720;BME280;5411;58.386;15.560;2024-02-15T12:31:22;78202.78;;;-144.36;92.18
10720;BME280;5411;58.386;15.560;2024-02-15T12:34:00;78210.94;;;-144.36;92.96
10720;BME280;5411;58.386;15.560;2024-02-15T12:36:34;78223.19;;;-144.36;93.89
10720;BME280;5411;58.386;15.560;2024-02-15T12:39:04;78243.59;;;-144.36;94.32
10720;BME280;5411;58.386;15.560;2024-02-15T12:41:40;78264.00;;;-144.36;94.58
10720;BME280;5411;58.386;15.560;2024-02-15T12:44:09;78278.31;;;-144.36;95.10
10720;BME280;5411;58.386;15.560;2024-02-15T12:46:38;78292.59;;;-144.36;96.78
10720;BME280;5411;58.386;15.560;2024-02-15T12:49:10;78282.38;;;-144.36;96.99
10720;BME280;5411;58.386;15.560;2024-02-15T12:51:50;78274.22;;;-144.36;96.70
10720;BME280;5411;58.386;15.560;2024-02-15T12:54:19;78249.72;;;-144.36;97.50
10720;BME280;5411;58.386;15.560;2024-02-15T12:56:50;78225.22;;;-144.36;96.86
10720;BME280;5411;58.386;15.560;2024-02-15T12:59:19;78208.91;;;-144.36;96.21
10720;BME280;5411;58.386;15.560;2024-02-15T13:01:51;78202.78;;;-144.36;95.16
10720;BME280;5411;58.386;15.560;2024-02-15T13:04:27;78196.66;;;-144.36;95.43
10720;BME280;5411;58.386;15.560;2024-02-15T13:06:55;78196.66;;;-144.36;94.61
10720;BME280;5411;58.386;15.560;2024-02-15T13:09:27;78190.53;;;-144.36;95.75
10720;BME280;5411;58.386;15.560;2024-02-15T13:12:00;78186.44;;;-144.36;95.64
10720;BME280;5411;58.386;15.560;2024-02-15T13:14:31;78188.50;;;-144.36;94.86